sensor_id;sensor_type;location;lat;lon;timestamp;temperature;humidity
10057;DHT22;5068;51.286;7.518;2023-04-24T00:00:12;10.60;54.60
10057;DHT22;5068;51.286;7.518;2023-04-24T00:01:46;10.60;54.70
10057;DHT22;5068;51.286;7.518;2023-04-24T00:03:19;10.50;54.80
10057;DHT22;5068;51.286;7.518;2023-04-24T00:04:53;10.50;54.80
10057;DHT22;5068;51.286;7.518;2023-04-24T00:06:27;10.50;55.00
10057;DHT22;5068;51.286;7.518;2023-04-24T00:08:04;10.40;55.00
10057;DHT22;5068;51.286;7.518;2023-04-24T00:09:37;10.40;55.20
10057;DHT22;5068;51.286;7.518;2023-04-24T00:11:11;10.40;55.20
10057;DHT22;5068;51.286;7.518;2023-04-24T00:12:44;10.30;55.20
10057;DHT22;5068;51.286;7.518;2023-04-24T00:14:18;10.40;55.40
10057;DHT22;5068;51.286;7.518;2023-04-24T00:15:52;10.30;55.50
10057;DHT22;5068;51.286;7.518;2023-04-24T00:17:24;10.30;55.70
10057;DHT22;5068;51.286;7.518;2023-04-24T00:18:57;10.30;55.70
10057;DHT22;5068;51.286;7.518;2023-04-24T00:20:29;10.30;55.50
10057;DHT22;5068;51.286;7.518;2023-04-24T00:22:04;10.30;55.70
10057;DHT22;5068;51.286;7.518;2023-04-24T00:23:37;10.30;55.90
10057;DHT22;5068;51.286;7.518;2023-04-24T00:25:10;10.30;55.90
10057;DHT22;5068;51.286;7.518;2023-04-24T00:26:43;10.30;56.20
10057;DHT22;5068;51.286;7.518;2023-04-24T00:28:16;10.30;56.20
10057;DHT22;5068;51.286;7.518;2023-04-24T00:29:51;10.30;56.30
10057;DHT22;5068;51.286;7.518;2023-04-24T00:31:24;10.30;56.50
10057;DHT22;5068;51.286;7.518;2023-04-24T00:32:57;10.30;56.60
10057;DHT22;5068;51.286;7.518;2023-04-24T00:34:31;10.30;56.70
10057;DHT22;5068;51.286;7.518;2023-04-24T00:36:04;10.30;56.70
10057;DHT22;5068;51.286;7.518;2023-04-24T00:37:39;10.30;56.80
10057;DHT22;5068;51.286;7.518;2023-04-24T00:39:15;10.30;56.60
10057;DHT22;5068;51.286;7.518;2023-04-24T00:40:48;10.30;56.50
10057;DHT22;5068;51.286;7.518;2023-04-24T00:42:22;10.30;56.50
10057;DHT22;5068;51.286;7.518;2023-04-24T00:43:55;10.30;56.60
10057;DHT22;5068;51.286;7.518;2023-04-24T00:45:30;10.30;56.60
10057;DHT22;5068;51.286;7.518;2023-04-24T00:47:04;10.30;56.70
10057;DHT22;5068;51.286;7.518;2023-04-24T00:48:39;10.30;56.90
10057;DHT22;5068;51.286;7.518;2023-04-24T00:50:14;10.30;57.10
10057;DHT22;5068;51.286;7.518;2023-04-24T00:51:48;10.30;57.20
10057;DHT22;5068;51.286;7.518;2023-04-24T00:53:22;10.30;57.20
10057;DHT22;5068;51.286;7.518;2023-04-24T00:54:56;10.30;57.20
10057;DHT22;5068;51.286;7.518;2023-04-24T00:56:30;10.30;57.40
10057;DHT22;5068;51.286;7.518;2023-04-24T00:58:04;10.40;57.50
10057;DHT22;5068;51.286;7.518;2023-04-24T00:59:37;10.30;57.40
10057;DHT22;5068;51.286;7.518;2023-04-24T01:01:12;10.40;57.50
10057;DHT22;5068;51.286;7.518;2023-04-24T01:02:46;10.40;57.60
10057;DHT22;5068;51.286;7.518;2023-04-24T01:04:19;10.40;57.60
10057;DHT22;5068;51.286;7.518;2023-04-24T01:05:54;10.40;57.60
10057;DHT22;5068;51.286;7.518;2023-04-24T01:07:29;10.40;57.50
10057;DHT22;5068;51.286;7.518;2023-04-24T01:09:02;10.40;57.30
10057;DHT22;5068;51.286;7.518;2023-04-24T01:10:36;10.40;57.20
10057;DHT22;5068;51.286;7.518;2023-04-24T01:12:13;10.40;57.10
10057;DHT22;5068;51.286;7.518;2023-04-24T01:13:49;10.40;57.10
10057;DHT22;5068;51.286;7.518;2023-04-24T01:15:22;10.40;57.20
10057;DHT22;5068;51.286;7.518;2023-04-24T01:16:57;10.40;57.30
10057;DHT22;5068;51.286;7.518;2023-04-24T01:18:32;10.40;57.30
10057;DHT22;5068;51.286;7.518;2023-04-24T01:20:06;10.40;57.20
10057;DHT22;5068;51.286;7.518;2023-04-24T01:21:39;10.40;57.30
10057;DHT22;5068;51.286;7.518;2023-04-24T01:23:14;10.40;57.30
10057;DHT22;5068;51.286;7.518;2023-04-24T01:24:48;10.40;57.50
10057;DHT22;5068;51.286;7.518;2023-04-24T01:26:21;10.50;57.10
10057;DHT22;5068;51.286;7.518;2023-04-24T01:27:57;10.40;57.10
10057;DHT22;5068;51.286;7.518;2023-04-24T01:29:30;10.50;57.40
10057;DHT22;5068;51.286;7.518;2023-04-24T01:31:04;10.40;57.20
10057;DHT22;5068;51.286;7.518;2023-04-24T01:32:37;10.40;57.20
10057;DHT22;5068;51.286;7.518;2023-04-24T01:34:11;10.50;57.20
10057;DHT22;5068;51.286;7.518;2023-04-24T01:35:45;10.40;57.10
10057;DHT22;5068;51.286;7.518;2023-04-24T01:37:18;10.40;57.10
10057;DHT22;5068;51.286;7.518;2023-04-24T01:38:52;10.30;57.00
10057;DHT22;5068;51.286;7.518;2023-04-24T01:40:25;10.40;57.10
10057;DHT22;5068;51.286;7.518;2023-04-24T01:41:58;10.40;56.90
10057;DHT22;5068;51.286;7.518;2023-04-24T01:43:32;10.40;56.90
10057;DHT22;5068;51.286;7.518;2023-04-24T01:45:06;10.40;57.00
10057;DHT22;5068;51.286;7.518;2023-04-24T01:46:42;10.40;57.00
10057;DHT22;5068;51.286;7.518;2023-04-24T01:48:16;10.40;57.00
10057;DHT22;5068;51.286;7.518;2023-04-24T01:49:48;10.40;56.90
10057;DHT22;5068;51.286;7.518;2023-04-24T01:51:23;10.30;56.90
10057;DHT22;5068;51.286;7.518;2023-04-24T01:52:56;10.40;57.10
10057;DHT22;5068;51.286;7.518;2023-04-24T01:54:30;10.40;57.30
10057;DHT22;5068;51.286;7.518;2023-04-24T01:56:04;10.40;57.30
10057;DHT22;5068;51.286;7.518;2023-04-24T01:57:38;10.30;57.10
10057;DHT22;5068;51.286;7.518;2023-04-24T01:59:12;10.40;57.10
10057;DHT22;5068;51.286;7.518;2023-04-24T02:00:46;10.40;56.90
10057;DHT22;5068;51.286;7.518;2023-04-24T02:02:20;10.30;56.70
10057;DHT22;5068;51.286;7.518;2023-04-24T02:03:55;10.40;56.60
10057;DHT22;5068;51.286;7.518;2023-04-24T02:05:29;10.30;56.40
10057;DHT22;5068;51.286;7.518;2023-04-24T02:07:02;10.30;56.10
10057;DHT22;5068;51.286;7.518;2023-04-24T02:08:36;10.30;55.90
10057;DHT22;5068;51.286;7.518;2023-04-24T02:10:12;10.30;55.70
10057;DHT22;5068;51.286;7.518;2023-04-24T02:11:47;10.30;55.60
10057;DHT22;5068;51.286;7.518;2023-04-24T02:13:20;10.30;55.50
10057;DHT22;5068;51.286;7.518;2023-04-24T02:14:52;10.30;55.40
10057;DHT22;5068;51.286;7.518;2023-04-24T02:16:25;10.30;55.10
10057;DHT22;5068;51.286;7.518;2023-04-24T02:17:59;10.30;55.10
10057;DHT22;5068;51.286;7.518;2023-04-24T02:19:32;10.30;55.00
10057;DHT22;5068;51.286;7.518;2023-04-24T02:21:06;10.30;54.90
10057;DHT22;5068;51.286;7.518;2023-04-24T02:22:38;10.30;54.90
10057;DHT22;5068;51.286;7.518;2023-04-24T02:24:11;10.30;54.80
10057;DHT22;5068;51.286;7.518;2023-04-24T02:25:45;10.30;54.80
10057;DHT22;5068;51.286;7.518;2023-04-24T02:27:19;10.30;54.90
10057;DHT22;5068;51.286;7.518;2023-04-24T02:28:52;10.30;54.90
10057;DHT22;5068;51.286;7.518;2023-04-24T02:30:25;10.30;54.90
10057;DHT22;5068;51.286;7.518;2023-04-24T02:31:58;10.30;55.00
10057;DHT22;5068;51.286;7.518;2023-04-24T02:33:31;10.30;55.10
10057;DHT22;5068;51.286;7.518;2023-04-24T02:35:05;10.30;55.20
10057;DHT22;5068;51.286;7.518;2023-04-24T02:36:39;10.30;55.40
10057;DHT22;5068;51.286;7.518;2023-04-24T02:38:12;10.30;55.50
10057;DHT22;5068;51.286;7.518;2023-04-24T02:39:47;10.30;55.70
10057;DHT22;5068;51.286;7.518;2023-04-24T02:41:22;10.30;55.70
10057;DHT22;5068;51.286;7.518;2023-04-24T02:42:55;10.30;55.70
10057;DHT22;5068;51.286;7.518;2023-04-24T02:44:28;10.20;55.70
10057;DHT22;5068;51.286;7.518;2023-04-24T02:46:02;10.20;55.80
10057;DHT22;5068;51.286;7.518;2023-04-24T02:47:35;10.20;55.80
10057;DHT22;5068;51.286;7.518;2023-04-24T02:49:07;10.20;55.80
10057;DHT22;5068;51.286;7.518;2023-04-24T02:50:41;10.10;55.80
10057;DHT22;5068;51.286;7.518;2023-04-24T02:52:14;10.10;55.70
10057;DHT22;5068;51.286;7.518;2023-04-24T02:53:48;10.10;55.70
10057;DHT22;5068;51.286;7.518;2023-04-24T02:55:21;10.10;55.60
10057;DHT22;5068;51.286;7.518;2023-04-24T02:56:56;10.10;55.70
10057;DHT22;5068;51.286;7.518;2023-04-24T02:58:29;10.10;55.60
10057;DHT22;5068;51.286;7.518;2023-04-24T03:00:02;10.10;55.60
10057;DHT22;5068;51.286;7.518;2023-04-24T03:01:39;10.10;55.60
10057;DHT22;5068;51.286;7.518;2023-04-24T03:03:12;10.00;55.50
10057;DHT22;5068;51.286;7.518;2023-04-24T03:04:46;10.00;55.40
10057;DHT22;5068;51.286;7.518;2023-04-24T03:06:20;10.00;55.40
10057;DHT22;5068;51.286;7.518;2023-04-24T03:07:53;10.00;55.30
10057;DHT22;5068;51.286;7.518;2023-04-24T03:09:26;10.00;55.20
10057;DHT22;5068;51.286;7.518;2023-04-24T03:10:59;10.00;55.20
10057;DHT22;5068;51.286;7.518;2023-04-24T03:12:33;9.90;55.00
10057;DHT22;5068;51.286;7.518;2023-04-24T03:14:06;9.90;55.00
10057;DHT22;5068;51.286;7.518;2023-04-24T03:15:42;9.90;55.00
10057;DHT22;5068;51.286;7.518;2023-04-24T03:17:15;9.90;55.10
10057;DHT22;5068;51.286;7.518;2023-04-24T03:18:48;9.80;55.00
10057;DHT22;5068;51.286;7.518;2023-04-24T03:20:23;9.80;55.00
10057;DHT22;5068;51.286;7.518;2023-04-24T03:21:56;9.80;55.00
10057;DHT22;5068;51.286;7.518;2023-04-24T03:23:30;9.80;55.00
10057;DHT22;5068;51.286;7.518;2023-04-24T03:25:04;9.70;54.80
10057;DHT22;5068;51.286;7.518;2023-04-24T03:26:37;9.70;54.90
10057;DHT22;5068;51.286;7.518;2023-04-24T03:28:39;9.70;54.90
10057;DHT22;5068;51.286;7.518;2023-04-24T03:30:13;9.70;55.00
10057;DHT22;5068;51.286;7.518;2023-04-24T03:31:51;9.70;55.10
10057;DHT22;5068;51.286;7.518;2023-04-24T03:33:25;9.60;55.10
10057;DHT22;5068;51.286;7.518;2023-04-24T03:35:06;9.60;55.10
10057;DHT22;5068;51.286;7.518;2023-04-24T03:36:45;9.60;55.10
10057;DHT22;5068;51.286;7.518;2023-04-24T03:38:20;9.50;55.10
10057;DHT22;5068;51.286;7.518;2023-04-24T03:40:01;9.50;55.20
10057;DHT22;5068;51.286;7.518;2023-04-24T03:41:33;9.50;55.20
10057;DHT22;5068;51.286;7.518;2023-04-24T03:43:13;9.50;55.30
10057;DHT22;5068;51.286;7.518;2023-04-24T03:44:48;9.50;55.30
10057;DHT22;5068;51.286;7.518;2023-04-24T03:46:21;9.50;55.30
10057;DHT22;5068;51.286;7.518;2023-04-24T03:47:59;9.40;55.40
10057;DHT22;5068;51.286;7.518;2023-04-24T03:49:32;9.40;55.20
10057;DHT22;5068;51.286;7.518;2023-04-24T03:51:06;9.40;55.20
10057;DHT22;5068;51.286;7.518;2023-04-24T03:52:41;9.40;55.30
10057;DHT22;5068;51.286;7.518;2023-04-24T03:54:17;9.40;55.30
10057;DHT22;5068;51.286;7.518;2023-04-24T03:55:50;9.30;55.10
10057;DHT22;5068;51.286;7.518;2023-04-24T03:57:23;9.30;55.20
10057;DHT22;5068;51.286;7.518;2023-04-24T03:59:12;9.30;55.40
10057;DHT22;5068;51.286;7.518;2023-04-24T04:00:49;9.30;55.40
10057;DHT22;5068;51.286;7.518;2023-04-24T04:02:46;9.30;55.40
10057;DHT22;5068;51.286;7.518;2023-04-24T04:04:19;9.30;55.40
10057;DHT22;5068;51.286;7.518;2023-04-24T04:05:52;9.30;55.30
10057;DHT22;5068;51.286;7.518;2023-04-24T04:07:25;9.30;55.90
10057;DHT22;5068;51.286;7.518;2023-04-24T04:08:59;9.30;55.20
10057;DHT22;5068;51.286;7.518;2023-04-24T04:10:33;9.30;55.30
10057;DHT22;5068;51.286;7.518;2023-04-24T04:12:09;9.30;55.30
10057;DHT22;5068;51.286;7.518;2023-04-24T04:13:43;9.30;55.20
10057;DHT22;5068;51.286;7.518;2023-04-24T04:15:17;9.30;55.20
10057;DHT22;5068;51.286;7.518;2023-04-24T04:16:52;9.30;55.10
10057;DHT22;5068;51.286;7.518;2023-04-24T04:18:26;9.30;55.20
10057;DHT22;5068;51.286;7.518;2023-04-24T04:19:59;9.20;55.00
10057;DHT22;5068;51.286;7.518;2023-04-24T04:21:33;9.30;55.20
10057;DHT22;5068;51.286;7.518;2023-04-24T04:23:16;9.20;55.10
10057;DHT22;5068;51.286;7.518;2023-04-24T04:25:08;9.20;55.20
10057;DHT22;5068;51.286;7.518;2023-04-24T04:26:41;9.20;55.30
10057;DHT22;5068;51.286;7.518;2023-04-24T04:28:29;9.20;55.40
10057;DHT22;5068;51.286;7.518;2023-04-24T04:30:04;9.20;55.50
10057;DHT22;5068;51.286;7.518;2023-04-24T04:31:47;9.20;55.50
10057;DHT22;5068;51.286;7.518;2023-04-24T04:33:21;9.20;55.40
10057;DHT22;5068;51.286;7.518;2023-04-24T04:34:54;9.20;55.40
10057;DHT22;5068;51.286;7.518;2023-04-24T04:36:31;9.20;55.40
10057;DHT22;5068;51.286;7.518;2023-04-24T04:38:23;9.20;55.30
10057;DHT22;5068;51.286;7.518;2023-04-24T04:40:04;9.20;55.30
10057;DHT22;5068;51.286;7.518;2023-04-24T04:41:44;9.20;55.20
10057;DHT22;5068;51.286;7.518;2023-04-24T04:43:22;9.20;55.20
10057;DHT22;5068;51.286;7.518;2023-04-24T04:44:58;9.20;55.30
10057;DHT22;5068;51.286;7.518;2023-04-24T04:46:40;9.20;55.20
10057;DHT22;5068;51.286;7.518;2023-04-24T04:48:23;9.20;55.30
10057;DHT22;5068;51.286;7.518;2023-04-24T04:49:57;9.20;55.30
10057;DHT22;5068;51.286;7.518;2023-04-24T04:51:32;9.10;55.20
10057;DHT22;5068;51.286;7.518;2023-04-24T04:53:05;9.10;55.20
10057;DHT22;5068;51.286;7.518;2023-04-24T04:54:42;9.10;55.20
10057;DHT22;5068;51.286;7.518;2023-04-24T04:56:15;9.10;55.70
10057;DHT22;5068;51.286;7.518;2023-04-24T04:57:51;9.10;55.10
10057;DHT22;5068;51.286;7.518;2023-04-24T04:59:24;9.10;55.20
10057;DHT22;5068;51.286;7.518;2023-04-24T05:01:04;9.20;55.10
10057;DHT22;5068;51.286;7.518;2023-04-24T05:02:44;9.10;55.10
10057;DHT22;5068;51.286;7.518;2023-04-24T05:04:19;9.10;55.10
10057;DHT22;5068;51.286;7.518;2023-04-24T05:05:52;9.10;55.00
10057;DHT22;5068;51.286;7.518;2023-04-24T05:07:26;9.20;55.20
10057;DHT22;5068;51.286;7.518;2023-04-24T05:09:00;9.10;54.90
10057;DHT22;5068;51.286;7.518;2023-04-24T05:10:51;9.10;54.90
10057;DHT22;5068;51.286;7.518;2023-04-24T05:12:24;9.10;54.90
10057;DHT22;5068;51.286;7.518;2023-04-24T05:13:58;9.10;55.00
10057;DHT22;5068;51.286;7.518;2023-04-24T05:15:39;9.20;55.00
10057;DHT22;5068;51.286;7.518;2023-04-24T05:17:12;9.10;54.90
10057;DHT22;5068;51.286;7.518;2023-04-24T05:18:45;9.10;54.70
10057;DHT22;5068;51.286;7.518;2023-04-24T05:20:24;9.10;55.50
10057;DHT22;5068;51.286;7.518;2023-04-24T05:21:58;9.10;54.90
10057;DHT22;5068;51.286;7.518;2023-04-24T05:23:35;9.10;54.90
10057;DHT22;5068;51.286;7.518;2023-04-24T05:25:08;9.10;54.90
10057;DHT22;5068;51.286;7.518;2023-04-24T05:26:50;9.10;54.90
10057;DHT22;5068;51.286;7.518;2023-04-24T05:28:28;9.10;55.00
10057;DHT22;5068;51.286;7.518;2023-04-24T05:30:10;9.10;55.10
10057;DHT22;5068;51.286;7.518;2023-04-24T05:31:43;9.10;55.10
10057;DHT22;5068;51.286;7.518;2023-04-24T05:33:17;9.10;55.00
10057;DHT22;5068;51.286;7.518;2023-04-24T05:34:50;9.10;55.00
10057;DHT22;5068;51.286;7.518;2023-04-24T05:36:25;9.10;54.90
10057;DHT22;5068;51.286;7.518;2023-04-24T05:37:59;9.10;55.00
10057;DHT22;5068;51.286;7.518;2023-04-24T05:39:32;9.10;55.00
10057;DHT22;5068;51.286;7.518;2023-04-24T05:41:05;9.10;55.10
10057;DHT22;5068;51.286;7.518;2023-04-24T05:42:39;9.10;55.30
10057;DHT22;5068;51.286;7.518;2023-04-24T05:44:12;9.10;55.40
10057;DHT22;5068;51.286;7.518;2023-04-24T05:45:46;9.10;55.50
10057;DHT22;5068;51.286;7.518;2023-04-24T05:47:19;9.10;55.60
10057;DHT22;5068;51.286;7.518;2023-04-24T05:48:54;9.10;55.70
10057;DHT22;5068;51.286;7.518;2023-04-24T05:50:27;9.10;55.80
10057;DHT22;5068;51.286;7.518;2023-04-24T05:52:02;9.10;55.90
10057;DHT22;5068;51.286;7.518;2023-04-24T05:53:37;9.00;55.90
10057;DHT22;5068;51.286;7.518;2023-04-24T05:55:11;9.00;56.10
10057;DHT22;5068;51.286;7.518;2023-04-24T05:56:46;9.00;56.20
10057;DHT22;5068;51.286;7.518;2023-04-24T05:58:27;9.00;56.30
10057;DHT22;5068;51.286;7.518;2023-04-24T06:00:00;9.00;56.50
10057;DHT22;5068;51.286;7.518;2023-04-24T06:01:34;9.00;56.50
10057;DHT22;5068;51.286;7.518;2023-04-24T06:03:16;9.00;56.50
10057;DHT22;5068;51.286;7.518;2023-04-24T06:04:51;9.00;56.50
10057;DHT22;5068;51.286;7.518;2023-04-24T06:06:25;9.00;56.50
10057;DHT22;5068;51.286;7.518;2023-04-24T06:08:00;9.00;56.50
10057;DHT22;5068;51.286;7.518;2023-04-24T06:09:38;9.00;56.70
10057;DHT22;5068;51.286;7.518;2023-04-24T06:11:12;9.00;56.70
10057;DHT22;5068;51.286;7.518;2023-04-24T06:12:45;9.00;56.70
10057;DHT22;5068;51.286;7.518;2023-04-24T06:14:21;9.00;56.70
10057;DHT22;5068;51.286;7.518;2023-04-24T06:16:14;8.90;56.60
10057;DHT22;5068;51.286;7.518;2023-04-24T06:17:54;8.90;56.60
10057;DHT22;5068;51.286;7.518;2023-04-24T06:19:27;8.90;56.60
10057;DHT22;5068;51.286;7.518;2023-04-24T06:21:01;8.90;56.70
10057;DHT22;5068;51.286;7.518;2023-04-24T06:22:34;8.90;56.70
10057;DHT22;5068;51.286;7.518;2023-04-24T06:24:09;9.00;56.90
10057;DHT22;5068;51.286;7.518;2023-04-24T06:25:43;8.90;56.90
10057;DHT22;5068;51.286;7.518;2023-04-24T06:27:17;8.90;56.90
10057;DHT22;5068;51.286;7.518;2023-04-24T06:28:50;8.90;57.00
10057;DHT22;5068;51.286;7.518;2023-04-24T06:30:25;8.90;57.20
10057;DHT22;5068;51.286;7.518;2023-04-24T06:32:00;8.90;57.40
10057;DHT22;5068;51.286;7.518;2023-04-24T06:33:33;8.90;57.50
10057;DHT22;5068;51.286;7.518;2023-04-24T06:35:07;8.80;57.60
10057;DHT22;5068;51.286;7.518;2023-04-24T06:36:42;8.90;57.90
10057;DHT22;5068;51.286;7.518;2023-04-24T06:38:16;8.80;58.50
10057;DHT22;5068;51.286;7.518;2023-04-24T06:39:51;8.80;57.90
10057;DHT22;5068;51.286;7.518;2023-04-24T06:41:24;8.80;58.10
10057;DHT22;5068;51.286;7.518;2023-04-24T06:42:58;8.80;58.20
10057;DHT22;5068;51.286;7.518;2023-04-24T06:44:31;8.80;58.20
10057;DHT22;5068;51.286;7.518;2023-04-24T06:46:09;8.80;58.30
10057;DHT22;5068;51.286;7.518;2023-04-24T06:47:43;8.80;58.40
10057;DHT22;5068;51.286;7.518;2023-04-24T06:49:17;8.80;58.50
10057;DHT22;5068;51.286;7.518;2023-04-24T06:50:50;8.80;58.70
10057;DHT22;5068;51.286;7.518;2023-04-24T06:52:24;8.80;58.70
10057;DHT22;5068;51.286;7.518;2023-04-24T06:53:57;8.80;58.70
10057;DHT22;5068;51.286;7.518;2023-04-24T06:55:32;8.70;58.60
10057;DHT22;5068;51.286;7.518;2023-04-24T06:57:05;8.70;58.60
10057;DHT22;5068;51.286;7.518;2023-04-24T06:58:38;8.70;58.70
10057;DHT22;5068;51.286;7.518;2023-04-24T07:00:13;8.70;58.80
10057;DHT22;5068;51.286;7.518;2023-04-24T07:01:47;8.70;59.00
10057;DHT22;5068;51.286;7.518;2023-04-24T07:03:20;8.70;59.10
10057;DHT22;5068;51.286;7.518;2023-04-24T07:04:54;8.70;59.20
10057;DHT22;5068;51.286;7.518;2023-04-24T07:06:27;8.70;59.30
10057;DHT22;5068;51.286;7.518;2023-04-24T07:08:03;8.70;59.50
10057;DHT22;5068;51.286;7.518;2023-04-24T07:09:38;8.60;59.40
10057;DHT22;5068;51.286;7.518;2023-04-24T07:11:16;8.60;59.40
10057;DHT22;5068;51.286;7.518;2023-04-24T07:12:49;8.60;59.50
10057;DHT22;5068;51.286;7.518;2023-04-24T07:14:22;8.60;59.60
10057;DHT22;5068;51.286;7.518;2023-04-24T07:15:56;8.60;59.50
10057;DHT22;5068;51.286;7.518;2023-04-24T07:17:29;8.60;59.60
10057;DHT22;5068;51.286;7.518;2023-04-24T07:19:02;8.60;59.50
10057;DHT22;5068;51.286;7.518;2023-04-24T07:20:35;8.60;59.60
10057;DHT22;5068;51.286;7.518;2023-04-24T07:22:09;8.60;59.70
10057;DHT22;5068;51.286;7.518;2023-04-24T07:23:43;8.60;59.80
10057;DHT22;5068;51.286;7.518;2023-04-24T07:25:16;8.50;59.80
10057;DHT22;5068;51.286;7.518;2023-04-24T07:26:51;8.60;59.90
10057;DHT22;5068;51.286;7.518;2023-04-24T07:28:25;8.50;60.00
10057;DHT22;5068;51.286;7.518;2023-04-24T07:29:58;8.50;60.10
10057;DHT22;5068;51.286;7.518;2023-04-24T07:31:31;8.50;60.20
10057;DHT22;5068;51.286;7.518;2023-04-24T07:33:05;8.50;60.20
10057;DHT22;5068;51.286;7.518;2023-04-24T07:34:38;8.50;60.40
10057;DHT22;5068;51.286;7.518;2023-04-24T07:36:12;8.50;60.50
10057;DHT22;5068;51.286;7.518;2023-04-24T07:37:48;8.50;60.40
10057;DHT22;5068;51.286;7.518;2023-04-24T07:39:22;8.50;60.50
10057;DHT22;5068;51.286;7.518;2023-04-24T07:40:56;8.50;60.50
10057;DHT22;5068;51.286;7.518;2023-04-24T07:42:30;8.50;60.30
10057;DHT22;5068;51.286;7.518;2023-04-24T07:44:06;8.50;60.20
10057;DHT22;5068;51.286;7.518;2023-04-24T07:45:39;8.50;60.20
10057;DHT22;5068;51.286;7.518;2023-04-24T07:47:13;8.50;60.20
10057;DHT22;5068;51.286;7.518;2023-04-24T07:48:47;8.50;60.10
10057;DHT22;5068;51.286;7.518;2023-04-24T07:50:32;8.50;60.10
10057;DHT22;5068;51.286;7.518;2023-04-24T07:52:06;8.50;60.30
10057;DHT22;5068;51.286;7.518;2023-04-24T07:53:39;8.50;60.20
10057;DHT22;5068;51.286;7.518;2023-04-24T07:55:12;8.50;60.00
10057;DHT22;5068;51.286;7.518;2023-04-24T07:56:45;8.50;59.90
10057;DHT22;5068;51.286;7.518;2023-04-24T07:58:20;8.50;60.00
10057;DHT22;5068;51.286;7.518;2023-04-24T07:59:53;8.50;60.10
10057;DHT22;5068;51.286;7.518;2023-04-24T08:01:26;8.40;59.90
10057;DHT22;5068;51.286;7.518;2023-04-24T08:03:00;8.40;59.70
10057;DHT22;5068;51.286;7.518;2023-04-24T08:04:33;8.40;59.70
10057;DHT22;5068;51.286;7.518;2023-04-24T08:06:07;8.40;59.50
10057;DHT22;5068;51.286;7.518;2023-04-24T08:07:40;8.40;59.50
10057;DHT22;5068;51.286;7.518;2023-04-24T08:09:14;8.40;59.60
10057;DHT22;5068;51.286;7.518;2023-04-24T08:10:48;8.40;59.70
10057;DHT22;5068;51.286;7.518;2023-04-24T08:12:21;8.40;60.20
10057;DHT22;5068;51.286;7.518;2023-04-24T08:13:56;8.40;60.30
10057;DHT22;5068;51.286;7.518;2023-04-24T08:15:29;8.40;60.50
10057;DHT22;5068;51.286;7.518;2023-04-24T08:17:03;8.30;60.60
10057;DHT22;5068;51.286;7.518;2023-04-24T08:18:36;8.40;61.00
10057;DHT22;5068;51.286;7.518;2023-04-24T08:20:11;8.30;60.80
10057;DHT22;5068;51.286;7.518;2023-04-24T08:21:46;8.30;60.80
10057;DHT22;5068;51.286;7.518;2023-04-24T08:23:19;8.40;60.70
10057;DHT22;5068;51.286;7.518;2023-04-24T08:24:54;8.40;60.70
10057;DHT22;5068;51.286;7.518;2023-04-24T08:26:28;8.30;60.90
10057;DHT22;5068;51.286;7.518;2023-04-24T08:28:02;8.40;60.90
10057;DHT22;5068;51.286;7.518;2023-04-24T08:29:37;8.40;61.00
10057;DHT22;5068;51.286;7.518;2023-04-24T08:31:11;8.40;60.90
10057;DHT22;5068;51.286;7.518;2023-04-24T08:32:44;8.40;60.50
10057;DHT22;5068;51.286;7.518;2023-04-24T08:34:17;8.40;60.40
10057;DHT22;5068;51.286;7.518;2023-04-24T08:35:50;8.40;60.50
10057;DHT22;5068;51.286;7.518;2023-04-24T08:37:26;8.40;60.40
10057;DHT22;5068;51.286;7.518;2023-04-24T08:38:59;8.40;60.30
10057;DHT22;5068;51.286;7.518;2023-04-24T08:40:34;8.40;60.10
10057;DHT22;5068;51.286;7.518;2023-04-24T08:42:08;8.40;60.00
10057;DHT22;5068;51.286;7.518;2023-04-24T08:43:42;8.40;59.60
10057;DHT22;5068;51.286;7.518;2023-04-24T08:45:17;8.40;59.10
10057;DHT22;5068;51.286;7.518;2023-04-24T08:46:50;8.40;58.70
10057;DHT22;5068;51.286;7.518;2023-04-24T08:48:26;8.30;58.40
10057;DHT22;5068;51.286;7.518;2023-04-24T08:50:03;8.30;58.30
10057;DHT22;5068;51.286;7.518;2023-04-24T08:51:39;8.30;58.30
10057;DHT22;5068;51.286;7.518;2023-04-24T08:53:13;8.20;58.20
10057;DHT22;5068;51.286;7.518;2023-04-24T08:54:47;8.20;58.60
10057;DHT22;5068;51.286;7.518;2023-04-24T08:56:22;8.10;58.80
10057;DHT22;5068;51.286;7.518;2023-04-24T08:57:55;8.10;58.90
10057;DHT22;5068;51.286;7.518;2023-04-24T08:59:30;8.10;58.90
10057;DHT22;5068;51.286;7.518;2023-04-24T09:01:05;8.00;58.90
10057;DHT22;5068;51.286;7.518;2023-04-24T09:02:42;8.00;59.10
10057;DHT22;5068;51.286;7.518;2023-04-24T09:04:17;8.00;59.30
10057;DHT22;5068;51.286;7.518;2023-04-24T09:05:55;8.00;59.40
10057;DHT22;5068;51.286;7.518;2023-04-24T09:07:30;8.00;59.40
10057;DHT22;5068;51.286;7.518;2023-04-24T09:09:07;8.00;59.30
10057;DHT22;5068;51.286;7.518;2023-04-24T09:10:43;8.00;59.20
10057;DHT22;5068;51.286;7.518;2023-04-24T09:12:19;7.90;59.30
10057;DHT22;5068;51.286;7.518;2023-04-24T09:13:53;7.90;59.50
10057;DHT22;5068;51.286;7.518;2023-04-24T09:15:27;7.90;59.30
10057;DHT22;5068;51.286;7.518;2023-04-24T09:17:02;7.90;59.30
10057;DHT22;5068;51.286;7.518;2023-04-24T09:18:35;7.90;59.40
10057;DHT22;5068;51.286;7.518;2023-04-24T09:20:09;7.90;59.40
10057;DHT22;5068;51.286;7.518;2023-04-24T09:21:46;7.90;59.40
10057;DHT22;5068;51.286;7.518;2023-04-24T09:23:19;7.80;59.50
10057;DHT22;5068;51.286;7.518;2023-04-24T09:25:01;7.80;59.50
10057;DHT22;5068;51.286;7.518;2023-04-24T09:26:38;7.80;59.70
10057;DHT22;5068;51.286;7.518;2023-04-24T09:28:12;7.70;59.50
10057;DHT22;5068;51.286;7.518;2023-04-24T09:29:57;7.80;59.90
10057;DHT22;5068;51.286;7.518;2023-04-24T09:31:31;7.70;60.20
10057;DHT22;5068;51.286;7.518;2023-04-24T09:33:13;7.70;60.20
10057;DHT22;5068;51.286;7.518;2023-04-24T09:34:48;7.70;60.20
10057;DHT22;5068;51.286;7.518;2023-04-24T09:36:27;7.70;60.20
10057;DHT22;5068;51.286;7.518;2023-04-24T09:38:01;7.70;60.50
10057;DHT22;5068;51.286;7.518;2023-04-24T09:39:34;7.60;60.40
10057;DHT22;5068;51.286;7.518;2023-04-24T09:41:08;7.60;60.40
10057;DHT22;5068;51.286;7.518;2023-04-24T09:42:52;7.60;60.40
10057;DHT22;5068;51.286;7.518;2023-04-24T09:44:28;7.60;60.80
10057;DHT22;5068;51.286;7.518;2023-04-24T09:46:05;7.60;61.00
10057;DHT22;5068;51.286;7.518;2023-04-24T09:47:41;7.60;61.20
10057;DHT22;5068;51.286;7.518;2023-04-24T09:49:22;7.60;61.30
10057;DHT22;5068;51.286;7.518;2023-04-24T09:50:56;7.60;61.60
10057;DHT22;5068;51.286;7.518;2023-04-24T09:52:29;7.60;61.40
10057;DHT22;5068;51.286;7.518;2023-04-24T09:54:04;7.60;61.50
10057;DHT22;5068;51.286;7.518;2023-04-24T09:55:47;7.70;61.90
10057;DHT22;5068;51.286;7.518;2023-04-24T09:57:22;7.70;61.90
10057;DHT22;5068;51.286;7.518;2023-04-24T09:59:04;7.70;62.00
10057;DHT22;5068;51.286;7.518;2023-04-24T10:00:38;7.70;62.40
10057;DHT22;5068;51.286;7.518;2023-04-24T10:02:17;7.70;62.20
10057;DHT22;5068;51.286;7.518;2023-04-24T10:03:51;7.70;62.40
10057;DHT22;5068;51.286;7.518;2023-04-24T10:05:28;7.70;62.50
10057;DHT22;5068;51.286;7.518;2023-04-24T10:07:03;7.70;62.70
10057;DHT22;5068;51.286;7.518;2023-04-24T10:08:39;7.70;62.50
10057;DHT22;5068;51.286;7.518;2023-04-24T10:10:13;7.70;62.30
10057;DHT22;5068;51.286;7.518;2023-04-24T10:11:47;7.70;62.30
10057;DHT22;5068;51.286;7.518;2023-04-24T10:13:22;7.70;62.30
10057;DHT22;5068;51.286;7.518;2023-04-24T10:14:55;7.70;62.20
10057;DHT22;5068;51.286;7.518;2023-04-24T10:16:31;7.70;62.20